sensor_id;sensor_type;location;lat;lon;timestamp;temperature;humidity
5334;DHT22;2689;50.954;7.116;2023-02-27T00:00:11;-0.20;99.90
5334;DHT22;2689;50.954;7.116;2023-02-27T00:02:39;-0.20;99.90
5334;DHT22;2689;50.954;7.116;2023-02-27T00:05:06;-0.20;99.90
5334;DHT22;2689;50.954;7.116;2023-02-27T00:07:33;-0.20;99.90
5334;DHT22;2689;50.954;7.116;2023-02-27T00:10:00;-0.20;99.90
5334;DHT22;2689;50.954;7.116;2023-02-27T00:12:26;-0.20;99.90
5334;DHT22;2689;50.954;7.116;2023-02-27T00:14:56;-0.30;99.90
5334;DHT22;2689;50.954;7.116;2023-02-27T00:17:23;-0.30;99.90
5334;DHT22;2689;50.954;7.116;2023-02-27T00:19:53;-0.30;99.90
5334;DHT22;2689;50.954;7.116;2023-02-27T00:22:19;-0.40;99.90
5334;DHT22;2689;50.954;7.116;2023-02-27T00:24:46;-0.40;99.90
5334;DHT22;2689;50.954;7.116;2023-02-27T00:27:13;-0.40;99.90
5334;DHT22;2689;50.954;7.116;2023-02-27T00:29:40;-0.40;99.90
5334;DHT22;2689;50.954;7.116;2023-02-27T00:32:08;-0.40;99.90
5334;DHT22;2689;50.954;7.116;2023-02-27T00:34:34;-0.40;99.90
5334;DHT22;2689;50.954;7.116;2023-02-27T00:37:01;-0.40;99.90
5334;DHT22;2689;50.954;7.116;2023-02-27T00:39:28;-0.40;99.90
5334;DHT22;2689;50.954;7.116;2023-02-27T00:41:55;-0.50;99.90
5334;DHT22;2689;50.954;7.116;2023-02-27T00:44:21;-0.60;99.90
5334;DHT22;2689;50.954;7.116;2023-02-27T00:46:48;-0.60;99.90
5334;DHT22;2689;50.954;7.116;2023-02-27T00:49:16;-0.70;99.90
5334;DHT22;2689;50.954;7.116;2023-02-27T00:51:44;-0.70;99.90
5334;DHT22;2689;50.954;7.116;2023-02-27T00:54:11;-0.70;99.90
5334;DHT22;2689;50.954;7.116;2023-02-27T00:56:38;-0.70;99.90
5334;DHT22;2689;50.954;7.116;2023-02-27T00:59:05;-0.80;99.90
5334;DHT22;2689;50.954;7.116;2023-02-27T01:01:32;-0.80;99.90
5334;DHT22;2689;50.954;7.116;2023-02-27T01:03:59;-0.80;99.90
5334;DHT22;2689;50.954;7.116;2023-02-27T01:06:27;-0.80;99.90
5334;DHT22;2689;50.954;7.116;2023-02-27T01:08:53;-0.80;99.90
5334;DHT22;2689;50.954;7.116;2023-02-27T01:11:21;-0.80;99.90
5334;DHT22;2689;50.954;7.116;2023-02-27T01:13:48;-0.80;99.90
5334;DHT22;2689;50.954;7.116;2023-02-27T01:16:14;-0.80;99.90
5334;DHT22;2689;50.954;7.116;2023-02-27T01:18:41;-0.80;99.90
5334;DHT22;2689;50.954;7.116;2023-02-27T01:21:08;-0.80;99.90
5334;DHT22;2689;50.954;7.116;2023-02-27T01:23:36;-0.80;99.90
5334;DHT22;2689;50.954;7.116;2023-02-27T01:26:03;-0.80;99.90
5334;DHT22;2689;50.954;7.116;2023-02-27T01:28:29;-0.80;99.90
5334;DHT22;2689;50.954;7.116;2023-02-27T01:30:56;-0.80;99.90
5334;DHT22;2689;50.954;7.116;2023-02-27T01:33:23;-0.80;99.90
5334;DHT22;2689;50.954;7.116;2023-02-27T01:35:50;-0.80;99.90
5334;DHT22;2689;50.954;7.116;2023-02-27T01:38:16;-0.80;99.90
5334;DHT22;2689;50.954;7.116;2023-02-27T01:40:44;-0.90;99.90
5334;DHT22;2689;50.954;7.116;2023-02-27T01:43:14;-0.90;99.90
5334;DHT22;2689;50.954;7.116;2023-02-27T01:45:42;-0.90;99.90
5334;DHT22;2689;50.954;7.116;2023-02-27T01:48:14;-0.90;99.90
5334;DHT22;2689;50.954;7.116;2023-02-27T01:50:47;-0.90;99.90
5334;DHT22;2689;50.954;7.116;2023-02-27T01:53:16;-0.90;99.90
5334;DHT22;2689;50.954;7.116;2023-02-27T01:55:46;-0.90;99.90
5334;DHT22;2689;50.954;7.116;2023-02-27T01:58:14;-0.90;99.90
5334;DHT22;2689;50.954;7.116;2023-02-27T02:00:41;-0.90;99.90
5334;DHT22;2689;50.954;7.116;2023-02-27T02:03:18;-0.90;99.90
5334;DHT22;2689;50.954;7.116;2023-02-27T02:05:46;-0.90;99.90
5334;DHT22;2689;50.954;7.116;2023-02-27T02:08:14;-0.90;99.90
5334;DHT22;2689;50.954;7.116;2023-02-27T02:10:44;-1.00;99.90
5334;DHT22;2689;50.954;7.116;2023-02-27T02:13:12;-0.90;99.90
5334;DHT22;2689;50.954;7.116;2023-02-27T02:15:46;-0.90;99.90
5334;DHT22;2689;50.954;7.116;2023-02-27T02:18:19;-1.00;99.90
5334;DHT22;2689;50.954;7.116;2023-02-27T02:27:07;-1.00;99.90
5334;DHT22;2689;50.954;7.116;2023-02-27T02:30:14;-1.00;99.90
5334;DHT22;2689;50.954;7.116;2023-02-27T02:33:14;-1.00;99.90
5334;DHT22;2689;50.954;7.116;2023-02-27T02:36:14;-1.00;99.90
5334;DHT22;2689;50.954;7.116;2023-02-27T02:42:02;-1.00;99.90
5334;DHT22;2689;50.954;7.116;2023-02-27T02:44:37;-1.10;99.90
5334;DHT22;2689;50.954;7.116;2023-02-27T02:47:16;-1.10;99.90
5334;DHT22;2689;50.954;7.116;2023-02-27T02:49:51;-1.10;99.90
5334;DHT22;2689;50.954;7.116;2023-02-27T02:52:26;-1.10;99.90
5334;DHT22;2689;50.954;7.116;2023-02-27T02:54:58;-1.10;99.90
5334;DHT22;2689;50.954;7.116;2023-02-27T02:57:34;-1.10;99.90
5334;DHT22;2689;50.954;7.116;2023-02-27T03:00:06;-1.10;99.90
5334;DHT22;2689;50.954;7.116;2023-02-27T03:02:37;-1.10;99.90
5334;DHT22;2689;50.954;7.116;2023-02-27T03:05:07;-1.10;99.90
5334;DHT22;2689;50.954;7.116;2023-02-27T03:07:38;-1.10;99.90
5334;DHT22;2689;50.954;7.116;2023-02-27T03:10:09;-1.10;99.90
5334;DHT22;2689;50.954;7.116;2023-02-27T03:12:40;-1.10;99.90
5334;DHT22;2689;50.954;7.116;2023-02-27T03:15:12;-1.10;99.90
5334;DHT22;2689;50.954;7.116;2023-02-27T03:17:44;-1.10;99.90
5334;DHT22;2689;50.954;7.116;2023-02-27T03:20:16;-1.10;99.90
5334;DHT22;2689;50.954;7.116;2023-02-27T03:22:47;-1.10;99.90
5334;DHT22;2689;50.954;7.116;2023-02-27T03:25:15;-1.10;99.90
5334;DHT22;2689;50.954;7.116;2023-02-27T03:27:46;-1.10;99.90
5334;DHT22;2689;50.954;7.116;2023-02-27T03:30:19;-1.20;99.90
5334;DHT22;2689;50.954;7.116;2023-02-27T03:32:55;-1.20;99.90
5334;DHT22;2689;50.954;7.116;2023-02-27T03:35:31;-1.20;99.90
5334;DHT22;2689;50.954;7.116;2023-02-27T03:38:07;-1.20;99.90
5334;DHT22;2689;50.954;7.116;2023-02-27T03:40:38;-1.20;99.90
5334;DHT22;2689;50.954;7.116;2023-02-27T03:43:13;-1.30;99.90
5334;DHT22;2689;50.954;7.116;2023-02-27T03:45:52;-1.30;99.90
5334;DHT22;2689;50.954;7.116;2023-02-27T03:48:21;-1.30;99.90
5334;DHT22;2689;50.954;7.116;2023-02-27T03:50:47;-1.30;99.90
5334;DHT22;2689;50.954;7.116;2023-02-27T03:53:22;-1.30;99.90
5334;DHT22;2689;50.954;7.116;2023-02-27T03:55:52;-1.30;99.90
5334;DHT22;2689;50.954;7.116;2023-02-27T03:58:21;-1.30;99.90
5334;DHT22;2689;50.954;7.116;2023-02-27T04:00:48;-1.40;99.90
5334;DHT22;2689;50.954;7.116;2023-02-27T04:03:15;-1.40;99.90
5334;DHT22;2689;50.954;7.116;2023-02-27T04:05:42;-1.40;99.90
5334;DHT22;2689;50.954;7.116;2023-02-27T04:08:41;-1.40;99.90
5334;DHT22;2689;50.954;7.116;2023-02-27T04:11:34;-1.40;99.90
5334;DHT22;2689;50.954;7.116;2023-02-27T04:14:25;-1.50;99.90
5334;DHT22;2689;50.954;7.116;2023-02-27T04:17:16;-1.50;99.90
5334;DHT22;2689;50.954;7.116;2023-02-27T04:20:22;-1.50;99.90
5334;DHT22;2689;50.954;7.116;2023-02-27T04:22:58;-1.50;99.90
5334;DHT22;2689;50.954;7.116;2023-02-27T04:25:40;-1.50;99.90
5334;DHT22;2689;50.954;7.116;2023-02-27T04:28:14;-1.50;99.90
5334;DHT22;2689;50.954;7.116;2023-02-27T04:30:56;-1.50;99.90
5334;DHT22;2689;50.954;7.116;2023-02-27T04:33:30;-1.50;99.90
5334;DHT22;2689;50.954;7.116;2023-02-27T04:36:03;-1.60;99.90
5334;DHT22;2689;50.954;7.116;2023-02-27T04:38:35;-1.60;99.90
5334;DHT22;2689;50.954;7.116;2023-02-27T04:41:06;-1.60;99.90
5334;DHT22;2689;50.954;7.116;2023-02-27T04:43:36;-1.60;99.90
5334;DHT22;2689;50.954;7.116;2023-02-27T04:46:07;-1.60;99.90
5334;DHT22;2689;50.954;7.116;2023-02-27T04:48:39;-1.60;99.90
5334;DHT22;2689;50.954;7.116;2023-02-27T04:51:12;-1.60;99.90
5334;DHT22;2689;50.954;7.116;2023-02-27T04:53:45;-1.60;99.90
5334;DHT22;2689;50.954;7.116;2023-02-27T04:56:15;-1.60;99.90
5334;DHT22;2689;50.954;7.116;2023-02-27T04:58:46;-1.60;99.90
5334;DHT22;2689;50.954;7.116;2023-02-27T05:01:19;-1.60;99.90
5334;DHT22;2689;50.954;7.116;2023-02-27T05:03:48;-1.60;99.90
5334;DHT22;2689;50.954;7.116;2023-02-27T05:06:19;-1.60;99.90
5334;DHT22;2689;50.954;7.116;2023-02-27T05:08:52;-1.60;99.90
5334;DHT22;2689;50.954;7.116;2023-02-27T05:11:25;-1.60;99.90
5334;DHT22;2689;50.954;7.116;2023-02-27T05:13:57;-1.60;99.90
5334;DHT22;2689;50.954;7.116;2023-02-27T05:16:30;-1.60;99.90
5334;DHT22;2689;50.954;7.116;2023-02-27T05:18:58;-1.60;99.90
5334;DHT22;2689;50.954;7.116;2023-02-27T05:21:29;-1.60;99.90
5334;DHT22;2689;50.954;7.116;2023-02-27T05:24:06;-1.60;99.90
5334;DHT22;2689;50.954;7.116;2023-02-27T05:26:58;-1.60;99.90
5334;DHT22;2689;50.954;7.116;2023-02-27T05:29:34;-1.70;99.90
5334;DHT22;2689;50.954;7.116;2023-02-27T05:32:10;-1.70;99.90
5334;DHT22;2689;50.954;7.116;2023-02-27T05:34:45;-1.70;99.90
5334;DHT22;2689;50.954;7.116;2023-02-27T05:37:17;-1.70;99.90
5334;DHT22;2689;50.954;7.116;2023-02-27T05:39:46;-1.70;99.90
5334;DHT22;2689;50.954;7.116;2023-02-27T05:42:17;-1.70;99.90
5334;DHT22;2689;50.954;7.116;2023-02-27T05:44:50;-1.70;99.90
5334;DHT22;2689;50.954;7.116;2023-02-27T05:47:22;-1.70;99.90
5334;DHT22;2689;50.954;7.116;2023-02-27T05:49:52;-1.70;99.90
5334;DHT22;2689;50.954;7.116;2023-02-27T05:52:23;-1.70;99.90
5334;DHT22;2689;50.954;7.116;2023-02-27T05:54:54;-1.70;99.90
5334;DHT22;2689;50.954;7.116;2023-02-27T05:57:26;-1.70;99.90
5334;DHT22;2689;50.954;7.116;2023-02-27T05:59:57;-1.70;99.90
5334;DHT22;2689;50.954;7.116;2023-02-27T06:02:28;-1.70;99.90
5334;DHT22;2689;50.954;7.116;2023-02-27T06:04:55;-1.80;99.90
5334;DHT22;2689;50.954;7.116;2023-02-27T06:07:22;-1.80;99.90
5334;DHT22;2689;50.954;7.116;2023-02-27T06:09:49;-1.80;99.90
5334;DHT22;2689;50.954;7.116;2023-02-27T06:12:16;-1.80;99.90
5334;DHT22;2689;50.954;7.116;2023-02-27T06:14:43;-1.80;99.90
5334;DHT22;2689;50.954;7.116;2023-02-27T06:17:10;-1.80;99.90
5334;DHT22;2689;50.954;7.116;2023-02-27T06:19:38;-1.80;99.90
5334;DHT22;2689;50.954;7.116;2023-02-27T06:22:05;-1.80;99.90
5334;DHT22;2689;50.954;7.116;2023-02-27T06:24:32;-1.80;99.90
5334;DHT22;2689;50.954;7.116;2023-02-27T06:26:58;-1.80;99.90
5334;DHT22;2689;50.954;7.116;2023-02-27T06:29:25;-1.80;99.90
5334;DHT22;2689;50.954;7.116;2023-02-27T06:31:52;-1.80;99.90
5334;DHT22;2689;50.954;7.116;2023-02-27T06:34:19;-1.80;99.90
5334;DHT22;2689;50.954;7.116;2023-02-27T06:36:47;-1.80;99.90
5334;DHT22;2689;50.954;7.116;2023-02-27T06:39:14;-1.70;99.90
5334;DHT22;2689;50.954;7.116;2023-02-27T06:41:41;-1.70;99.90
5334;DHT22;2689;50.954;7.116;2023-02-27T06:44:08;-1.70;99.90
5334;DHT22;2689;50.954;7.116;2023-02-27T06:46:35;-1.70;99.90
5334;DHT22;2689;50.954;7.116;2023-02-27T06:49:01;-1.60;99.90
5334;DHT22;2689;50.954;7.116;2023-02-27T06:51:28;-1.60;99.90
5334;DHT22;2689;50.954;7.116;2023-02-27T06:53:56;-1.60;99.90
5334;DHT22;2689;50.954;7.116;2023-02-27T06:56:23;-1.60;99.90
5334;DHT22;2689;50.954;7.116;2023-02-27T06:58:50;-1.50;99.90
5334;DHT22;2689;50.954;7.116;2023-02-27T07:01:16;-1.50;99.90
5334;DHT22;2689;50.954;7.116;2023-02-27T07:03:43;-1.40;99.90
5334;DHT22;2689;50.954;7.116;2023-02-27T07:06:10;-1.50;99.90
5334;DHT22;2689;50.954;7.116;2023-02-27T07:08:37;-1.40;99.90
5334;DHT22;2689;50.954;7.116;2023-02-27T07:11:05;-1.40;99.90
5334;DHT22;2689;50.954;7.116;2023-02-27T07:13:32;-1.40;99.90
5334;DHT22;2689;50.954;7.116;2023-02-27T07:15:59;-1.40;99.90
5334;DHT22;2689;50.954;7.116;2023-02-27T07:18:26;-1.30;99.90
5334;DHT22;2689;50.954;7.116;2023-02-27T07:20:53;-1.20;99.90
5334;DHT22;2689;50.954;7.116;2023-02-27T07:23:20;-1.20;99.90
5334;DHT22;2689;50.954;7.116;2023-02-27T07:25:47;-1.10;99.90
5334;DHT22;2689;50.954;7.116;2023-02-27T07:28:16;-1.00;99.90
5334;DHT22;2689;50.954;7.116;2023-02-27T07:30:43;-0.90;99.90
5334;DHT22;2689;50.954;7.116;2023-02-27T07:33:10;-0.80;99.90
5334;DHT22;2689;50.954;7.116;2023-02-27T07:35:37;-0.80;99.90
5334;DHT22;2689;50.954;7.116;2023-02-27T07:38:03;-0.70;99.90
5334;DHT22;2689;50.954;7.116;2023-02-27T07:40:30;-0.60;99.90
5334;DHT22;2689;50.954;7.116;2023-02-27T07:42:57;-0.50;99.90
5334;DHT22;2689;50.954;7.116;2023-02-27T07:45:25;-0.40;99.90
5334;DHT22;2689;50.954;7.116;2023-02-27T07:47:51;-0.20;99.90
5334;DHT22;2689;50.954;7.116;2023-02-27T07:50:18;0.00;99.90
5334;DHT22;2689;50.954;7.116;2023-02-27T07:52:45;0.10;99.90
5334;DHT22;2689;50.954;7.116;2023-02-27T07:55:13;0.20;99.90
5334;DHT22;2689;50.954;7.116;2023-02-27T07:57:40;0.70;99.90
5334;DHT22;2689;50.954;7.116;2023-02-27T08:00:07;1.90;99.90
5334;DHT22;2689;50.954;7.116;2023-02-27T08:02:36;3.20;99.90
5334;DHT22;2689;50.954;7.116;2023-02-27T08:05:04;4.80;99.90
5334;DHT22;2689;50.954;7.116;2023-02-27T08:07:31;6.20;95.80
5334;DHT22;2689;50.954;7.116;2023-02-27T08:09:58;7.90;92.60
5334;DHT22;2689;50.954;7.116;2023-02-27T08:12:25;9.20;84.60
5334;DHT22;2689;50.954;7.116;2023-02-27T08:14:52;10.70;77.50
5334;DHT22;2689;50.954;7.116;2023-02-27T08:17:18;11.70;68.50
5334;DHT22;2689;50.954;7.116;2023-02-27T08:19:47;12.60;63.20
5334;DHT22;2689;50.954;7.116;2023-02-27T08:22:13;13.80;59.70
5334;DHT22;2689;50.954;7.116;2023-02-27T08:24:40;14.70;56.70
5334;DHT22;2689;50.954;7.116;2023-02-27T08:27:07;15.50;53.70
5334;DHT22;2689;50.954;7.116;2023-02-27T08:29:34;16.40;50.80
5334;DHT22;2689;50.954;7.116;2023-02-27T08:32:01;17.00;47.90
5334;DHT22;2689;50.954;7.116;2023-02-27T08:34:29;17.30;45.30
5334;DHT22;2689;50.954;7.116;2023-02-27T08:36:57;17.80;45.10
5334;DHT22;2689;50.954;7.116;2023-02-27T08:39:24;18.40;45.20
5334;DHT22;2689;50.954;7.116;2023-02-27T08:41:51;18.90;42.20
5334;DHT22;2689;50.954;7.116;2023-02-27T08:44:18;19.30;41.40
5334;DHT22;2689;50.954;7.116;2023-02-27T08:46:45;19.20;39.00
5334;DHT22;2689;50.954;7.116;2023-02-27T08:49:11;19.00;39.00
5334;DHT22;2689;50.954;7.116;2023-02-27T08:51:38;19.40;39.50
5334;DHT22;2689;50.954;7.116;2023-02-27T08:54:06;19.70;36.90
5334;DHT22;2689;50.954;7.116;2023-02-27T08:56:33;19.80;35.90
5334;DHT22;2689;50.954;7.116;2023-02-27T08:59:00;19.80;37.00
5334;DHT22;2689;50.954;7.116;2023-02-27T09:01:27;20.20;35.60
5334;DHT22;2689;50.954;7.116;2023-02-27T09:03:59;20.50;35.90
5334;DHT22;2689;50.954;7.116;2023-02-27T09:06:27;21.20;34.90
5334;DHT22;2689;50.954;7.116;2023-02-27T09:08:54;21.80;35.80
5334;DHT22;2689;50.954;7.116;2023-02-27T09:11:22;22.40;34.00
5334;DHT22;2689;50.954;7.116;2023-02-27T09:13:49;22.90;34.20
5334;DHT22;2689;50.954;7.116;2023-02-27T09:16:17;23.30;32.30
5334;DHT22;2689;50.954;7.116;2023-02-27T09:18:45;23.50;29.90
5334;DHT22;2689;50.954;7.116;2023-02-27T09:21:12;23.70;31.20
5334;DHT22;2689;50.954;7.116;2023-02-27T09:23:40;23.60;30.40
5334;DHT22;2689;50.954;7.116;2023-02-27T09:26:07;23.90;30.00
5334;DHT22;2689;50.954;7.116;2023-02-27T09:28:36;23.50;28.90
5334;DHT22;2689;50.954;7.116;2023-02-27T09:31:10;23.10;28.90
5334;DHT22;2689;50.954;7.116;2023-02-27T09:33:38;22.80;28.90
5334;DHT22;2689;50.954;7.116;2023-02-27T09:36:06;22.70;29.10
5334;DHT22;2689;50.954;7.116;2023-02-27T09:38:34;22.90;29.30
5334;DHT22;2689;50.954;7.116;2023-02-27T09:41:02;23.10;29.20
5334;DHT22;2689;50.954;7.116;2023-02-27T09:43:35;23.40;29.30
5334;DHT22;2689;50.954;7.116;2023-02-27T09:46:05;23.90;28.70
5334;DHT22;2689;50.954;7.116;2023-02-27T09:48:35;24.10;28.50
5334;DHT22;2689;50.954;7.116;2023-02-27T09:51:04;24.50;27.70
5334;DHT22;2689;50.954;7.116;2023-02-27T09:53:34;24.60;27.80
5334;DHT22;2689;50.954;7.116;2023-02-27T09:56:07;24.30;27.20
5334;DHT22;2689;50.954;7.116;2023-02-27T09:58:44;23.80;27.40
5334;DHT22;2689;50.954;7.116;2023-02-27T10:01:24;23.90;28.10
5334;DHT22;2689;50.954;7.116;2023-02-27T10:04:21;24.00;27.30
5334;DHT22;2689;50.954;7.116;2023-02-27T10:07:12;24.60;28.30
5334;DHT22;2689;50.954;7.116;2023-02-27T10:10:33;22.90;26.70
5334;DHT22;2689;50.954;7.116;2023-02-27T10:13:24;23.50;28.00
5334;DHT22;2689;50.954;7.116;2023-02-27T10:18:55;23.30;27.00
5334;DHT22;2689;50.954;7.116;2023-02-27T10:21:33;23.90;28.10
5334;DHT22;2689;50.954;7.116;2023-02-27T10:24:11;24.60;27.00
5334;DHT22;2689;50.954;7.116;2023-02-27T10:26:54;24.30;26.40
5334;DHT22;2689;50.954;7.116;2023-02-27T10:29:27;24.50;27.20
5334;DHT22;2689;50.954;7.116;2023-02-27T10:32:03;24.80;26.80
5334;DHT22;2689;50.954;7.116;2023-02-27T10:34:43;24.50;26.50
5334;DHT22;2689;50.954;7.116;2023-02-27T10:37:17;24.30;25.70
5334;DHT22;2689;50.954;7.116;2023-02-27T10:39:47;23.50;25.70
5334;DHT22;2689;50.954;7.116;2023-02-27T10:42:16;23.50;27.10
5334;DHT22;2689;50.954;7.116;2023-02-27T10:44:57;23.70;26.90
5334;DHT22;2689;50.954;7.116;2023-02-27T10:47:25;23.90;26.00
5334;DHT22;2689;50.954;7.116;2023-02-27T10:49:54;23.40;25.90
5334;DHT22;2689;50.954;7.116;2023-02-27T10:52:21;23.00;26.00
5334;DHT22;2689;50.954;7.116;2023-02-27T10:54:51;22.80;26.30
5334;DHT22;2689;50.954;7.116;2023-02-27T10:57:26;22.70;26.30
5334;DHT22;2689;50.954;7.116;2023-02-27T10:59:57;21.50;26.70
5334;DHT22;2689;50.954;7.116;2023-02-27T11:02:28;21.30;27.60
5334;DHT22;2689;50.954;7.116;2023-02-27T11:04:59;21.60;27.60
5334;DHT22;2689;50.954;7.116;2023-02-27T11:07:30;21.70;27.40
5334;DHT22;2689;50.954;7.116;2023-02-27T11:09:59;21.70;27.10
5334;DHT22;2689;50.954;7.116;2023-02-27T11:12:28;22.10;27.50
5334;DHT22;2689;50.954;7.116;2023-02-27T11:14:58;22.40;27.10
5334;DHT22;2689;50.954;7.116;2023-02-27T11:17:28;23.10;27.40
5334;DHT22;2689;50.954;7.116;2023-02-27T11:19:57;22.90;26.60
5334;DHT22;2689;50.954;7.116;2023-02-27T11:22:28;22.60;26.20
5334;DHT22;2689;50.954;7.116;2023-02-27T11:25:19;22.40;26.70
5334;DHT22;2689;50.954;7.116;2023-02-27T11:27:47;22.10;26.90
5334;DHT22;2689;50.954;7.116;2023-02-27T11:30:23;22.40;27.00
5334;DHT22;2689;50.954;7.116;2023-02-27T11:33:02;22.10;26.70
5334;DHT22;2689;50.954;7.116;2023-02-27T11:35:57;22.50;27.00
5334;DHT22;2689;50.954;7.116;2023-02-27T11:41:54;23.10;27.00
5334;DHT22;2689;50.954;7.116;2023-02-27T11:44:52;23.30;26.30
5334;DHT22;2689;50.954;7.116;2023-02-27T11:47:23;22.70;26.60
5334;DHT22;2689;50.954;7.116;2023-02-27T11:56:16;22.70;26.60
5334;DHT22;2689;50.954;7.116;2023-02-27T11:58:48;22.30;26.20
5334;DHT22;2689;50.954;7.116;2023-02-27T12:01:23;21.50;27.10
5334;DHT22;2689;50.954;7.116;2023-02-27T12:03:56;21.40;27.50
5334;DHT22;2689;50.954;7.116;2023-02-27T12:06:30;21.10;27.60
5334;DHT22;2689;50.954;7.116;2023-02-27T12:09:10;20.00;27.70
5334;DHT22;2689;50.954;7.116;2023-02-27T12:11:49;19.20;28.60
5334;DHT22;2689;50.954;7.116;2023-02-27T12:14:20;18.90;29.40
5334;DHT22;2689;50.954;7.116;2023-02-27T12:16:53;19.00;29.80
5334;DHT22;2689;50.954;7.116;2023-02-27T12:19:26;18.60;29.80
5334;DHT22;2689;50.954;7.116;2023-02-27T12:21:58;18.50;29.80
5334;DHT22;2689;50.954;7.116;2023-02-27T12:24:29;18.70;30.00
5334;DHT22;2689;50.954;7.116;2023-02-27T12:27:48;19.00;30.00
5334;DHT22;2689;50.954;7.116;2023-02-27T12:30:15;19.30;29.40
5334;DHT22;2689;50.954;7.116;2023-02-27T12:32:50;20.10;29.70
5334;DHT22;2689;50.954;7.116;2023-02-27T12:35:24;20.60;29.10
5334;DHT22;2689;50.954;7.116;2023-02-27T12:37:53;20.60;29.00
5334;DHT22;2689;50.954;7.116;2023-02-27T12:40:36;19.80;28.70
5334;DHT22;2689;50.954;7.116;2023-02-27T12:43:15;18.60;29.30
5334;DHT22;2689;50.954;7.116;2023-02-27T12:45:56;18.50;30.10
5334;DHT22;2689;50.954;7.116;2023-02-27T12:48:36;18.60;30.30
5334;DHT22;2689;50.954;7.116;2023-02-27T12:51:12;19.00;30.20
5334;DHT22;2689;50.954;7.116;2023-02-27T12:54:00;18.80;29.80
5334;DHT22;2689;50.954;7.116;2023-02-27T12:56:35;18.00;29.60
5334;DHT22;2689;50.954;7.116;2023-02-27T12:59:17;17.20;30.10
5334;DHT22;2689;50.954;7.116;2023-02-27T13:01:54;16.90;31.00
5334;DHT22;2689;50.954;7.116;2023-02-27T13:04:27;16.80;31.30
5334;DHT22;2689;50.954;7.116;2023-02-27T13:07:00;16.60;32.40
5334;DHT22;2689;50.954;7.116;2023-02-27T13:09:37;16.60;32.50
5334;DHT22;2689;50.954;7.116;2023-02-27T13:12:13;16.20;32.70
5334;DHT22;2689;50.954;7.116;2023-02-27T13:14:48;15.60;32.80
5334;DHT22;2689;50.954;7.116;2023-02-27T13:17:18;14.80;34.30
5334;DHT22;2689;50.954;7.116;2023-02-27T13:19:50;14.60;34.70
5334;DHT22;2689;50.954;7.116;2023-02-27T13:22:24;13.80;34.70
5334;DHT22;2689;50.954;7.116;2023-02-27T13:24:54;13.40;35.90
5334;DHT22;2689;50.954;7.116;2023-02-27T13:27:25;13.30;37.10
5334;DHT22;2689;50.954;7.116;2023-02-27T13:30:06;13.80;38.30
5334;DHT22;2689;50.954;7.116;2023-02-27T13:32:41;14.70;37.80
5334;DHT22;2689;50.954;7.116;2023-02-27T13:35:24;15.20;36.60
5334;DHT22;2689;50.954;7.116;2023-02-27T13:37:53;15.50;35.20
5334;DHT22;2689;50.954;7.116;2023-02-27T13:40:36;15.80;34.20
5334;DHT22;2689;50.954;7.116;2023-02-27T13:43:32;15.80;34.00
5334;DHT22;2689;50.954;7.116;2023-02-27T13:46:01;15.90;34.00
5334;DHT22;2689;50.954;7.116;2023-02-27T13:48:45;16.10;34.00
5334;DHT22;2689;50.954;7.116;2023-02-27T13:51:42;16.50;33.60
5334;DHT22;2689;50.954;7.116;2023-02-27T13:54:31;16.40;33.20
5334;DHT22;2689;50.954;7.116;2023-02-27T13:57:16;16.40;32.90
5334;DHT22;2689;50.954;7.116;2023-02-27T13:59:51;15.00;32.70
5334;DHT22;2689;50.954;7.116;2023-02-27T14:02:34;13.70;34.30
5334;DHT22;2689;50.954;7.116;2023-02-27T14:05:07;14.40;38.30
5334;DHT22;2689;50.954;7.116;2023-02-27T14:07:56;15.70;37.40
5334;DHT22;2689;50.954;7.116;2023-02-27T14:10:25;16.70;35.70
5334;DHT22;2689;50.954;7.116;2023-02-27T14:12:52;17.60;35.10
5334;DHT22;2689;50.954;7.116;2023-02-27T14:15:48;18.40;33.80
5334;DHT22;2689;50.954;7.116;2023-02-27T14:21:52;17.60;31.50
5334;DHT22;2689;50.954;7.116;2023-02-27T14:24:30;15.80;31.90
5334;DHT22;2689;50.954;7.116;2023-02-27T14:26:59;14.70;33.50
5334;DHT22;2689;50.954;7.116;2023-02-27T14:29:28;15.90;37.00
5334;DHT22;2689;50.954;7.116;2023-02-27T14:32:00;17.10;36.80
5334;DHT22;2689;50.954;7.116;2023-02-27T14:34:28;17.10;34.20
5334;DHT22;2689;50.954;7.116;2023-02-27T14:36:58;17.40;34.80
5334;DHT22;2689;50.954;7.116;2023-02-27T14:39:27;17.60;33.00
5334;DHT22;2689;50.954;7.116;2023-02-27T14:42:18;17.30;33.30
5334;DHT22;2689;50.954;7.116;2023-02-27T14:44:50;17.40;33.50
5334;DHT22;2689;50.954;7.116;2023-02-27T14:47:18;17.80;33.70
5334;DHT22;2689;50.954;7.116;2023-02-27T14:49:46;18.10;32.70
5334;DHT22;2689;50.954;7.116;2023-02-27T14:52:19;18.20;31.80
5334;DHT22;2689;50.954;7.116;2023-02-27T14:54:46;17.80;31.70
5334;DHT22;2689;50.954;7.116;2023-02-27T14:57:16;17.40;32.00
5334;DHT22;2689;50.954;7.116;2023-02-27T14:59:45;17.40;32.90
5334;DHT22;2689;50.954;7.116;2023-02-27T15:02:20;17.40;32.40
5334;DHT22;2689;50.954;7.116;2023-02-27T15:04:53;17.40;33.00
5334;DHT22;2689;50.954;7.116;2023-02-27T15:07:23;17.40;32.70
5334;DHT22;2689;50.954;7.116;2023-02-27T15:09:53;17.00;31.80
5334;DHT22;2689;50.954;7.116;2023-02-27T15:12:21;16.20;32.10
5334;DHT22;2689;50.954;7.116;2023-02-27T15:14:51;15.70;32.80
5334;DHT22;2689;50.954;7.116;2023-02-27T15:17:19;15.00;33.00
5334;DHT22;2689;50.954;7.116;2023-02-27T15:19:48;14.40;35.30
5334;DHT22;2689;50.954;7.116;2023-02-27T15:22:17;14.20;37.40
5334;DHT22;2689;50.954;7.116;2023-02-27T15:24:46;14.00;38.10
5334;DHT22;2689;50.954;7.116;2023-02-27T15:27:16;13.20;38.10
5334;DHT22;2689;50.954;7.116;2023-02-27T15:29:47;12.80;39.10
5334;DHT22;2689;50.954;7.116;2023-02-27T15:32:17;12.30;39.80
5334;DHT22;2689;50.954;7.116;2023-02-27T15:34:46;12.00;40.80
5334;DHT22;2689;50.954;7.116;2023-02-27T15:37:19;11.60;41.30
5334;DHT22;2689;50.954;7.116;2023-02-27T15:39:49;11.10;41.80
5334;DHT22;2689;50.954;7.116;2023-02-27T15:42:28;10.90;42.60
5334;DHT22;2689;50.954;7.116;2023-02-27T15:44:56;10.60;42.70
5334;DHT22;2689;50.954;7.116;2023-02-27T15:47:25;10.30;42.50
5334;DHT22;2689;50.954;7.116;2023-02-27T15:49:54;9.90;43.60
5334;DHT22;2689;50.954;7.116;2023-02-27T15:52:23;9.80;44.20
5334;DHT22;2689;50.954;7.116;2023-02-27T15:54:53;9.70;44.90
5334;DHT22;2689;50.954;7.116;2023-02-27T15:57:24;9.50;45.00
5334;DHT22;2689;50.954;7.116;2023-02-27T15:59:54;9.30;45.70
5334;DHT22;2689;50.954;7.116;2023-02-27T16:02:23;9.10;46.20
5334;DHT22;2689;50.954;7.116;2023-02-27T16:04:52;8.90;46.30
5334;DHT22;2689;50.954;7.116;2023-02-27T16:07:21;8.70;46.60
5334;DHT22;2689;50.954;7.116;2023-02-27T16:09:52;8.60;47.00
5334;DHT22;2689;50.954;7.116;2023-02-27T16:12:27;8.40;47.60
5334;DHT22;2689;50.954;7.116;2023-02-27T16:15:22;8.30;48.30
5334;DHT22;2689;50.954;7.116;2023-02-27T16:18:01;8.20;48.60
5334;DHT22;2689;50.954;7.116;2023-02-27T16:20:42;8.00;49.10
5334;DHT22;2689;50.954;7.116;2023-02-27T16:23:17;7.90;49.40
5334;DHT22;2689;50.954;7.116;2023-02-27T16:26:05;7.80;49.80
5334;DHT22;2689;50.954;7.116;2023-02-27T16:28:33;7.60;49.90
5334;DHT22;2689;50.954;7.116;2023-02-27T16:31:01;7.40;50.30
5334;DHT22;2689;50.954;7.116;2023-02-27T16:33:31;7.30;50.70
5334;DHT22;2689;50.954;7.116;2023-02-27T16:36:15;7.20;51.10
5334;DHT22;2689;50.954;7.116;2023-02-27T16:38:43;7.20;51.60
5334;DHT22;2689;50.954;7.116;2023-02-27T16:41:12;7.00;51.60
5334;DHT22;2689;50.954;7.116;2023-02-27T16:43:40;6.90;51.60
5334;DHT22;2689;50.954;7.116;2023-02-27T16:46:07;6.90;52.20
5334;DHT22;2689;50.954;7.116;2023-02-27T16:48:34;6.80;52.50
5334;DHT22;2689;50.954;7.116;2023-02-27T16:51:00;6.70;52.50
5334;DHT22;2689;50.954;7.116;2023-02-27T16:53:28;6.60;52.70
5334;DHT22;2689;50.954;7.116;2023-02-27T16:55:55;6.50;52.90
5334;DHT22;2689;50.954;7.116;2023-02-27T16:58:23;6.40;53.30